Time;durP1;ratioP1;P1;durP2;ratioP2;P2;SDS_P1;SDS_P2;PMS_P1;PMS_P2;Temp;Humidity;BMP_temperature;BMP_pressure;BME280_temperature;BME280_humidity;BME280_pressure;Samples;Min_cycle;Max_cycle;Signal;HPM_P1;HPM_P2
2021/09/12 00:01:24;;;;;;;7.37;6.70;;;15.80;99.90;;;;;;5033414;28;20449;-85
2021/09/12 00:03:51;;;;;;;8.97;8.17;;;15.70;99.90;;;;;;5033818;28;20966;-83
2021/09/12 00:06:19;;;;;;;8.33;7.53;;;15.70;99.90;;;;;;5034272;28;20461;-85
2021/09/12 00:08:46;;;;;;;7.17;6.53;;;15.70;99.90;;;;;;5034626;28;20842;-85
2021/09/12 00:11:12;;;;;;;7.50;6.90;;;15.70;99.90;;;;;;5034177;28;20456;-86
2021/09/12 00:13:41;;;;;;;7.93;7.23;;;15.70;99.90;;;;;;5033401;28;20478;-85
2021/09/12 00:16:07;;;;;;;7.90;7.20;;;15.60;99.90;;;;;;5033799;28;20493;-85
2021/09/12 00:18:34;;;;;;;7.63;6.83;;;15.60;99.90;;;;;;5034080;28;20473;-84
2021/09/12 00:21:01;;;;;;;7.30;6.70;;;15.60;99.90;;;;;;5033887;28;20954;-85
2021/09/12 00:23:29;;;;;;;7.93;7.10;;;15.60;99.90;;;;;;5033224;28;20491;-85
2021/09/12 00:25:56;;;;;;;7.93;7.23;;;15.60;99.90;;;;;;5034089;28;20464;-84
2021/09/12 00:28:22;;;;;;;11.63;8.00;;;15.50;99.90;;;;;;5033780;28;20470;-85
2021/09/12 00:30:49;;;;;;;9.93;8.93;;;15.50;99.90;;;;;;5034224;28;20453;-86
2021/09/12 00:33:16;;;;;;;8.73;7.87;;;15.50;99.90;;;;;;5037333;28;20488;-86
2021/09/12 00:35:43;;;;;;;8.37;7.53;;;15.50;99.90;;;;;;5037777;28;20452;-84
2021/09/12 00:38:12;;;;;;;9.07;8.17;;;15.50;99.90;;;;;;5037533;28;20464;-85
2021/09/12 00:40:40;;;;;;;8.23;7.50;;;15.40;99.90;;;;;;5037938;28;20464;-85
2021/09/12 00:43:07;;;;;;;9.37;8.47;;;15.40;99.90;;;;;;5036882;28;20483;-85
2021/09/12 00:45:33;;;;;;;11.20;10.20;;;15.40;99.90;;;;;;5037910;28;20472;-85
2021/09/12 00:48:00;;;;;;;8.87;8.07;;;15.40;99.90;;;;;;5037842;28;20871;-85
2021/09/12 00:50:27;;;;;;;8.73;7.97;;;15.40;99.90;;;;;;5037478;28;20444;-84
2021/09/12 00:53:01;;;;;;;8.90;8.10;;;15.30;99.90;;;;;;5037218;28;20815;-86
2021/09/12 00:55:29;;;;;;;8.23;7.50;;;15.30;99.90;;;;;;5037389;28;20433;-85
2021/09/12 00:58:00;;;;;;;7.47;6.77;;;15.30;99.90;;;;;;5037500;28;20476;-85
2021/09/12 01:00:27;;;;;;;8.60;7.80;;;15.30;99.90;;;;;;5037303;28;20450;-85
2021/09/12 01:02:54;;;;;;;8.40;7.57;;;15.30;99.90;;;;;;5036662;28;20539;-86
2021/09/12 01:05:20;;;;;;;9.50;8.53;;;15.30;99.90;;;;;;5037667;28;20457;-84
2021/09/12 01:07:47;;;;;;;7.40;6.80;;;15.20;99.90;;;;;;5037844;28;20452;-85
2021/09/12 01:10:14;;;;;;;8.30;7.60;;;15.20;99.90;;;;;;5037009;28;20445;-85
2021/09/12 01:12:41;;;;;;;8.50;7.03;;;15.20;99.90;;;;;;5037210;28;20441;-85
2021/09/12 01:15:10;;;;;;;8.07;7.27;;;15.20;99.90;;;;;;5037582;28;20811;-85
2021/09/12 01:17:37;;;;;;;9.40;7.43;;;15.20;99.90;;;;;;5037571;28;20449;-84
2021/09/12 01:20:05;;;;;;;7.77;7.00;;;15.20;99.90;;;;;;5037341;28;20817;-85
2021/09/12 01:22:32;;;;;;;7.80;7.00;;;15.10;99.90;;;;;;5036291;28;20489;-86
2021/09/12 01:25:00;;;;;;;7.03;6.33;;;15.10;99.90;;;;;;5036721;28;20466;-85
2021/09/12 01:27:27;;;;;;;13.20;7.90;;;15.10;99.90;;;;;;5036840;28;20453;-85
2021/09/12 01:29:53;;;;;;;8.30;7.50;;;15.10;99.90;;;;;;5036707;28;20485;-86
2021/09/12 01:32:23;;;;;;;8.03;7.33;;;15.10;99.90;;;;;;5035812;28;20449;-85
2021/09/12 01:34:50;;;;;;;8.23;7.10;;;15.00;99.90;;;;;;5036823;28;20453;-85
2021/09/12 01:37:17;;;;;;;8.60;7.87;;;15.00;99.90;;;;;;5036673;28;20457;-85
2021/09/12 01:39:43;;;;;;;8.20;7.50;;;15.00;99.90;;;;;;5036900;28;20478;-84
2021/09/12 01:42:11;;;;;;;8.00;7.20;;;15.00;99.90;;;;;;5037024;28;20491;-84
2021/09/12 01:44:44;;;;;;;8.57;7.70;;;14.90;99.90;;;;;;5039569;28;20457;-86
2021/09/12 01:47:11;;;;;;;11.33;8.40;;;14.90;99.90;;;;;;5040099;28;20438;-85
2021/09/12 01:49:38;;;;;;;8.17;7.37;;;14.90;99.90;;;;;;5040390;28;20476;-84
2021/09/12 01:52:05;;;;;;;8.57;7.77;;;14.80;99.90;;;;;;5039943;28;20457;-84
2021/09/12 01:54:32;;;;;;;8.70;7.77;;;14.70;99.90;;;;;;5040615;28;20481;-86
2021/09/12 01:56:58;;;;;;;8.07;7.43;;;14.70;99.90;;;;;;5040353;28;20457;-85
2021/09/12 01:59:26;;;;;;;8.40;7.20;;;14.70;99.90;;;;;;5040230;28;20462;-86
2021/09/12 02:01:53;;;;;;;8.70;7.80;;;14.70;99.90;;;;;;5039049;28;20451;-86
2021/09/12 02:04:20;;;;;;;13.40;8.10;;;14.70;99.90;;;;;;5039237;28;20450;-84
2021/09/12 02:06:46;;;;;;;8.10;7.40;;;14.60;99.90;;;;;;5039949;28;20457;-85
2021/09/12 02:14:37;;;;;;;8.43;7.73;;;14.70;99.90;;;;;;3271369;26;20510;-85
2021/09/12 05:11:39;;;;;;;9.80;8.83;;;13.10;99.90;;;;;;4702847;30;20487;-82
2021/09/12 06:13:42;;;;;;;;;;;;;;;;;;;;;
2021/09/12 06:16:39;;;;;;;11.03;10.07;;;14.00;99.90;;;;;;4790837;29;20462;-83
2021/09/12 06:19:39;;;;;;;9.60;8.70;;;14.10;99.90;;;;;;4925696;28;21012;-84
2021/09/12 06:22:09;;;;;;;8.60;7.90;;;14.00;99.90;;;;;;4995565;28;20447;-83
2021/09/12 06:24:41;;;;;;;12.23;10.03;;;14.10;99.90;;;;;;4996050;28;20841;-84
2021/09/12 06:27:42;;;;;;;11.53;10.20;;;14.20;99.90;;;;;;4995814;28;20479;-84
2021/09/12 06:30:21;;;;;;;9.70;8.73;;;14.30;99.90;;;;;;4995779;28;20479;-84
2021/09/12 06:32:54;;;;;;;10.17;9.20;;;14.40;99.90;;;;;;4995500;28;20469;-84
2021/09/12 06:35:23;;;;;;;10.93;9.83;;;14.50;99.90;;;;;;4995549;28;20542;-83
2021/09/12 06:37:52;;;;;;;12.53;10.93;;;14.50;99.90;;;;;;4995573;28;20459;-84
2021/09/12 06:40:51;;;;;;;13.13;11.90;;;14.60;99.90;;;;;;4995895;28;20477;-83
2021/09/12 07:11:15;;;;;;;11.73;10.63;;;15.30;99.90;;;;;;4809778;29;20537;-86
2021/09/12 07:13:53;;;;;;;11.30;10.20;;;15.40;99.90;;;;;;4896718;29;20940;-85
2021/09/12 07:19:30;;;;;;;12.50;11.30;;;15.60;99.90;;;;;;4992951;28;21020;-86
2021/09/12 07:22:04;;;;;;;12.63;11.60;;;15.70;99.90;;;;;;4993716;28;20450;-85
2021/09/12 07:24:35;;;;;;;11.67;10.63;;;15.80;99.90;;;;;;4993905;28;20497;-85
2021/09/12 07:27:41;;;;;;;12.43;11.23;;;15.90;99.90;;;;;;4994310;28;20945;-85
2021/09/12 07:30:43;;;;;;;;;;;;;;;;;;;;;
2021/09/12 07:43:21;;;;;;;9.60;8.77;;;16.40;99.90;;;;;;4887773;29;21053;-86
2021/09/12 07:45:48;;;;;;;9.13;8.23;;;16.40;99.90;;;;;;4952901;29;20455;-84
2021/09/12 07:48:15;;;;;;;10.00;9.10;;;16.50;99.90;;;;;;4958767;28;20473;-85
2021/09/12 07:50:43;;;;;;;10.90;7.93;;;16.40;99.90;;;;;;4993797;28;20475;-84
2021/09/12 07:53:09;;;;;;;7.80;7.17;;;16.50;99.90;;;;;;4994191;28;20979;-84
2021/09/12 07:55:36;;;;;;;9.80;7.70;;;16.60;99.90;;;;;;4995408;28;20456;-84
2021/09/12 07:58:03;;;;;;;7.80;7.07;;;16.70;99.90;;;;;;4995388;28;20456;-84
2021/09/12 08:00:37;;;;;;;10.77;7.67;;;16.80;99.90;;;;;;4994865;28;20456;-85
2021/09/12 08:03:05;;;;;;;8.20;7.50;;;16.90;99.90;;;;;;4993285;28;20492;-84
2021/09/12 08:05:43;;;;;;;9.07;7.97;;;16.90;99.90;;;;;;4994574;28;21055;-85
2021/09/12 08:08:10;;;;;;;8.10;7.30;;;17.00;99.90;;;;;;5021723;22;20945;-86
2021/09/12 08:10:37;;;;;;;7.50;6.63;;;16.90;99.90;;;;;;5053101;28;20454;-83
2021/09/12 08:13:03;;;;;;;7.50;6.87;;;16.90;99.90;;;;;;5055894;28;20451;-85
2021/09/12 08:15:31;;;;;;;7.77;7.03;;;17.10;99.90;;;;;;5056025;28;20450;-83
2021/09/12 08:17:58;;;;;;;7.40;6.77;;;17.20;99.90;;;;;;5055960;28;20441;-86
2021/09/12 08:20:25;;;;;;;7.77;7.10;;;17.30;99.90;;;;;;5054758;28;20471;-84
2021/09/12 08:22:52;;;;;;;7.47;6.50;;;17.40;99.90;;;;;;5054891;28;20446;-85
2021/09/12 08:25:18;;;;;;;6.00;5.50;;;17.20;99.90;;;;;;5054930;28;20494;-85
2021/09/12 08:27:45;;;;;;;8.90;8.10;;;17.20;99.90;;;;;;5054439;28;20826;-85
2021/09/12 08:30:12;;;;;;;7.50;6.90;;;17.30;99.90;;;;;;5054555;28;20994;-85
2021/09/12 08:32:40;;;;;;;6.80;6.07;;;17.30;99.90;;;;;;5054076;28;20537;-84
2021/09/12 08:35:08;;;;;;;6.97;6.23;;;17.30;99.90;;;;;;5054500;28;20450;-83
2021/09/12 08:37:35;;;;;;;6.70;6.10;;;17.40;99.90;;;;;;5054200;28;20446;-85
2021/09/12 08:40:06;;;;;;;5.70;5.20;;;17.60;99.90;;;;;;5053440;28;20891;-84
2021/09/12 08:42:33;;;;;;;6.37;5.80;;;17.70;99.90;;;;;;5054434;28;20430;-84
2021/09/12 08:45:00;;;;;;;6.87;6.30;;;17.90;99.90;;;;;;5054218;28;20849;-84
2021/09/12 08:47:27;;;;;;;5.73;5.23;;;17.90;99.90;;;;;;5054064;28;20455;-83
2021/09/12 08:49:55;;;;;;;6.13;5.60;;;18.00;99.90;;;;;;5053548;28;20484;-83
2021/09/12 08:52:22;;;;;;;7.20;6.70;;;18.10;99.90;;;;;;5053555;28;20452;-83
2021/09/12 08:54:49;;;;;;;7.13;6.43;;;18.20;99.90;;;;;;5057248;28;20452;-82
2021/09/12 08:57:16;;;;;;;7.00;6.30;;;18.30;99.90;;;;;;5057762;28;20963;-83
2021/09/12 08:59:49;;;;;;;7.00;6.40;;;18.40;99.90;;;;;;5057568;28;20518;-83
2021/09/12 09:02:16;;;;;;;7.00;6.30;;;18.50;99.90;;;;;;5057557;28;20786;-83
2021/09/12 09:05:05;;;;;;;6.70;6.20;;;18.70;99.90;;;;;;5058208;28;20490;-86
2021/09/12 09:15:37;;;;;;;5.40;5.00;;;19.00;99.90;;;;;;4868048;29;20448;-85
2021/09/12 09:21:36;;;;;;;5.93;4.63;;;19.40;99.90;;;;;;4935655;28;20439;-85
2021/09/12 09:24:13;;;;;;;5.50;5.00;;;19.60;99.90;;;;;;5062188;28;20572;-84
2021/09/12 09:26:44;;;;;;;4.33;3.93;;;19.70;99.90;;;;;;5098153;28;20458;-84
2021/09/12 09:29:11;;;;;;;4.30;3.90;;;19.90;99.90;;;;;;5097697;28;20458;-84
2021/09/12 09:31:42;;;;;;;4.60;4.20;;;20.00;99.90;;;;;;5098094;28;20828;-84
2021/09/12 09:34:18;;;;;;;4.90;3.73;;;20.20;99.90;;;;;;5097603;28;20451;-84
2021/09/12 09:36:47;;;;;;;3.73;3.43;;;20.30;99.90;;;;;;5097507;28;20449;-83
2021/09/12 09:39:35;;;;;;;4.30;4.00;;;20.50;99.90;;;;;;5097513;28;20466;-84
2021/09/12 09:42:04;;;;;;;3.37;3.07;;;20.60;99.90;;;;;;5084806;28;20427;-84
2021/09/12 09:44:56;;;;;;;5.03;4.63;;;20.60;99.90;;;;;;5077394;28;20513;-85
2021/09/12 09:47:29;;;;;;;4.53;4.17;;;20.70;99.90;;;;;;5077516;28;20417;-85
2021/09/12 09:50:21;;;;;;;3.93;3.30;;;20.80;99.90;;;;;;5088304;28;20471;-84
2021/09/12 09:52:52;;;;;;;4.77;4.37;;;20.90;99.90;;;;;;5097509;28;20957;-85
2021/09/12 10:00:32;;;;;;;;;;;;;;;;;;;;;
2021/09/12 10:09:50;;;;;;;3.83;3.53;;;21.10;99.90;;;;;;5030335;28;20476;-85
2021/09/12 10:12:19;;;;;;;3.83;3.60;;;21.00;99.90;;;;;;5096029;28;20477;-85
2021/09/12 10:14:51;;;;;;;4.00;3.70;;;21.00;99.90;;;;;;5097478;28;20454;-85
2021/09/12 10:17:24;;;;;;;3.97;3.67;;;21.10;99.90;;;;;;5096033;28;20455;-84
2021/09/12 10:23:21;;;;;;;5.00;3.83;;;21.30;99.90;;;;;;5095457;28;20487;-83
2021/09/12 10:32:53;;;;;;;;;;;;;;;;;;;;;
2021/09/12 10:39:32;;;;;;;3.37;3.17;;;22.50;99.90;;;;;;4916268;29;20480;-81
2021/09/12 10:42:19;;;;;;;2.97;2.77;;;22.80;99.90;;;;;;4987630;28;20458;-83
2021/09/12 10:44:46;;;;;;;3.80;3.50;;;23.30;99.90;;;;;;5013338;28;20490;-85
2021/09/12 10:47:20;;;;;;;2.90;2.70;;;23.60;99.90;;;;;;5061824;28;20446;-84
2021/09/12 10:49:46;;;;;;;3.33;3.03;;;24.00;99.90;;;;;;5093356;28;20462;-83
2021/09/12 10:52:49;;;;;;;3.40;3.20;;;24.40;99.90;;;;;;5094799;28;20439;-85
2021/09/12 10:55:15;;;;;;;3.50;3.20;;;24.40;98.60;;;;;;5094736;28;20500;-84
2021/09/12 10:57:43;;;;;;;2.83;2.63;;;24.40;99.90;;;;;;5089327;28;20932;-83
2021/09/12 11:00:11;;;;;;;3.10;2.90;;;24.60;99.60;;;;;;5086300;28;20463;-85
2021/09/12 11:02:42;;;;;;;3.20;3.00;;;24.50;98.90;;;;;;5088008;28;20446;-84
2021/09/12 11:08:56;;;;;;;3.20;3.00;;;24.50;98.80;;;;;;5069190;28;20557;-85
2021/09/12 11:15:18;;;;;;;;;;;;;;;;;;;;;
2021/09/12 11:26:50;;;;;;;3.10;2.90;;;25.40;96.00;;;;;;4848001;29;20585;-84
2021/09/12 11:29:19;;;;;;;4.03;3.07;;;25.30;95.50;;;;;;4915932;28;20495;-85
2021/09/12 11:31:48;;;;;;;3.50;3.20;;;25.50;98.00;;;;;;5093676;28;20792;-85
2021/09/12 11:34:17;;;;;;;3.20;3.00;;;25.70;95.30;;;;;;5095167;28;20857;-84
2021/09/12 11:36:47;;;;;;;2.87;2.53;;;25.80;96.90;;;;;;5097194;28;20810;-84
2021/09/12 11:39:15;;;;;;;2.80;2.60;;;26.20;96.60;;;;;;5092426;28;20470;-85
2021/09/12 11:41:43;;;;;;;2.70;2.50;;;26.90;93.70;;;;;;5089773;28;20443;-84
2021/09/12 11:44:12;;;;;;;6.43;3.00;;;27.50;94.40;;;;;;5089280;28;20567;-85
2021/09/12 11:46:44;;;;;;;2.90;2.70;;;28.10;92.40;;;;;;5092123;28;20456;-85
2021/09/12 11:49:11;;;;;;;2.43;2.33;;;28.60;88.20;;;;;;5090722;28;20571;-86
2021/09/12 11:51:40;;;;;;;2.80;2.60;;;29.20;92.40;;;;;;5089643;28;20449;-84
2021/09/12 11:54:13;;;;;;;3.13;2.93;;;29.70;89.10;;;;;;5089004;28;20443;-84
2021/09/12 11:56:42;;;;;;;2.90;2.70;;;29.70;86.40;;;;;;5088392;28;20447;-84
2021/09/12 11:59:11;;;;;;;3.67;3.37;;;30.00;85.50;;;;;;5092017;28;20466;-86
2021/09/12 12:01:42;;;;;;;2.87;2.67;;;30.30;87.40;;;;;;5090156;28;20435;-84
2021/09/12 12:04:11;;;;;;;3.47;3.20;;;30.70;84.10;;;;;;5089751;28;20950;-85
2021/09/12 12:06:38;;;;;;;3.00;2.80;;;31.10;86.20;;;;;;5087019;28;20563;-82
2021/09/12 12:09:10;;;;;;;2.50;2.40;;;31.20;85.10;;;;;;5086374;28;20464;-82
2021/09/12 12:11:40;;;;;;;3.20;3.00;;;31.10;83.30;;;;;;5083809;28;20464;-82
2021/09/12 12:14:09;;;;;;;2.87;2.67;;;30.70;78.90;;;;;;5082477;28;20456;-83
2021/09/12 12:16:42;;;;;;;2.83;2.63;;;30.50;77.10;;;;;;5079961;28;20459;-85
2021/09/12 12:19:11;;;;;;;4.10;3.80;;;29.70;78.80;;;;;;5078849;28;20474;-86
2021/09/12 12:21:38;;;;;;;2.90;2.70;;;28.40;78.30;;;;;;5078467;28;20480;-86
2021/09/12 12:24:18;;;;;;;3.37;3.13;;;28.10;81.10;;;;;;5079164;28;20945;-86
2021/09/12 12:26:50;;;;;;;3.07;2.80;;;27.50;82.10;;;;;;5078854;28;20813;-86
2021/09/12 12:29:29;;;;;;;2.63;2.43;;;27.10;81.30;;;;;;5082760;28;20470;-85
2021/09/12 12:31:59;;;;;;;3.60;3.30;;;26.90;85.50;;;;;;5082897;28;20457;-86
2021/09/12 12:34:40;;;;;;;3.53;3.33;;;27.40;89.40;;;;;;5082202;28;20451;-86
2021/09/12 12:37:09;;;;;;;4.87;3.60;;;27.80;86.10;;;;;;5082669;28;20460;-85
2021/09/12 12:39:36;;;;;;;2.60;2.47;;;28.10;88.90;;;;;;5078858;28;20562;-85
2021/09/12 12:42:03;;;;;;;3.13;2.83;;;28.20;86.40;;;;;;5078971;28;20460;-84
2021/09/12 12:44:30;;;;;;;2.50;2.40;;;28.30;84.40;;;;;;5079160;28;20548;-84
2021/09/12 12:46:58;;;;;;;2.97;2.77;;;28.80;83.60;;;;;;5078760;28;20459;-84
2021/09/12 12:49:26;;;;;;;2.70;2.50;;;29.60;83.30;;;;;;5078775;28;21006;-84
2021/09/12 12:52:11;;;;;;;2.87;2.67;;;30.50;83.00;;;;;;5078199;28;20451;-83
2021/09/12 12:54:40;;;;;;;3.40;3.20;;;31.30;75.70;;;;;;5079073;28;20458;-84
2021/09/12 12:57:10;;;;;;;3.63;3.07;;;32.10;74.50;;;;;;5078190;28;20458;-84
2021/09/12 12:59:45;;;;;;;3.73;3.50;;;32.90;70.20;;;;;;5078382;28;20480;-85
2021/09/12 13:02:13;;;;;;;3.30;3.10;;;33.70;70.40;;;;;;5077994;28;20460;-83
2021/09/12 13:04:40;;;;;;;2.97;2.80;;;34.40;68.20;;;;;;5078274;28;20487;-84
2021/09/12 13:07:07;;;;;;;2.80;2.60;;;34.60;59.60;;;;;;5079138;28;20451;-84
2021/09/12 13:09:33;;;;;;;2.33;2.23;;;34.70;58.40;;;;;;5078625;28;20478;-85
2021/09/12 13:12:00;;;;;;;2.80;2.60;;;34.60;58.60;;;;;;5077418;28;20465;-84
2021/09/12 13:14:27;;;;;;;2.73;2.60;;;34.30;57.10;;;;;;5079000;28;20450;-85
2021/09/12 13:16:53;;;;;;;3.07;2.90;;;33.70;56.80;;;;;;5078740;28;20447;-84
2021/09/12 13:19:21;;;;;;;2.60;2.40;;;33.50;57.90;;;;;;5078800;28;20495;-85
2021/09/12 13:21:48;;;;;;;3.10;2.90;;;32.90;57.10;;;;;;5078851;28;20455;-84
2021/09/12 13:24:15;;;;;;;3.97;3.30;;;32.90;58.70;;;;;;5079203;28;20458;-85
2021/09/12 13:26:46;;;;;;;2.70;2.60;;;32.90;58.50;;;;;;5079631;28;20481;-86
2021/09/12 13:29:13;;;;;;;3.20;2.90;;;32.90;60.30;;;;;;5080227;28;20486;-83
2021/09/12 13:31:41;;;;;;;3.10;2.20;;;33.10;62.60;;;;;;5080161;28;20561;-83
2021/09/12 13:34:08;;;;;;;2.93;2.63;;;33.60;60.80;;;;;;5077426;28;20455;-84
2021/09/12 13:36:39;;;;;;;2.80;2.60;;;34.20;59.40;;;;;;5082476;28;20452;-83
2021/09/12 13:39:06;;;;;;;2.90;2.60;;;34.60;57.80;;;;;;5077089;28;20847;-84
2021/09/12 13:41:33;;;;;;;2.37;2.27;;;35.20;56.70;;;;;;5078751;28;20518;-84
2021/09/12 13:43:59;;;;;;;2.80;2.60;;;35.70;55.60;;;;;;5078825;28;20452;-84
2021/09/12 13:46:26;;;;;;;3.00;2.80;;;36.00;55.00;;;;;;5078720;28;20475;-84
2021/09/12 13:48:53;;;;;;;2.80;2.70;;;36.30;55.00;;;;;;5078467;28;20471;-85
2021/09/12 13:51:20;;;;;;;2.90;2.70;;;36.40;53.60;;;;;;5077540;28;20451;-85
2021/09/12 13:53:50;;;;;;;2.50;2.40;;;36.40;52.00;;;;;;5077428;28;20459;-85
2021/09/12 13:56:17;;;;;;;2.70;2.60;;;36.40;52.40;;;;;;5076742;28;20451;-83
2021/09/12 13:58:44;;;;;;;2.80;2.60;;;36.30;52.30;;;;;;5077368;28;20847;-83
2021/09/12 14:01:10;;;;;;;3.00;2.80;;;35.70;50.50;;;;;;5078261;28;20803;-83
2021/09/12 14:03:37;;;;;;;2.93;2.73;;;34.90;52.70;;;;;;5078473;28;20813;-81
2021/09/12 14:06:04;;;;;;;2.73;2.53;;;34.50;53.70;;;;;;5077264;28;20487;-83
2021/09/12 14:08:39;;;;;;;2.63;2.50;;;34.00;53.20;;;;;;5116957;22;20482;-88
2021/09/12 14:11:30;;;;;;;2.77;2.57;;;33.30;54.30;;;;;;5053280;28;20459;-87
2021/09/12 14:13:56;;;;;;;3.90;2.37;;;32.60;55.40;;;;;;5054079;28;20490;-87
2021/09/12 14:16:29;;;;;;;2.87;2.77;;;32.30;55.10;;;;;;5053743;28;21034;-87
2021/09/12 14:18:56;;;;;;;2.97;2.77;;;31.50;55.30;;;;;;5054006;28;20477;-86
2021/09/12 14:21:22;;;;;;;2.53;2.43;;;31.40;58.10;;;;;;5053142;28;20456;-86
2021/09/12 14:23:49;;;;;;;3.60;3.10;;;30.80;58.20;;;;;;5054225;28;20459;-87
2021/09/12 14:26:17;;;;;;;3.27;3.07;;;30.40;59.00;;;;;;5053605;28;20466;-86
2021/09/12 14:28:45;;;;;;;3.10;2.90;;;29.40;60.20;;;;;;5053586;28;20482;-86
2021/09/12 14:31:16;;;;;;;3.70;3.40;;;29.20;63.20;;;;;;5053699;28;20452;-86
2021/09/12 14:33:43;;;;;;;3.20;3.00;;;29.10;64.00;;;;;;5052749;28;20469;-87
2021/09/12 14:36:09;;;;;;;3.17;2.87;;;28.80;63.50;;;;;;5052300;28;20478;-86
2021/09/12 14:38:36;;;;;;;3.40;3.10;;;28.70;64.20;;;;;;5051880;28;20454;-85
2021/09/12 14:41:03;;;;;;;2.90;2.73;;;28.50;64.20;;;;;;5052422;28;20437;-86
2021/09/12 14:43:32;;;;;;;2.97;2.77;;;28.00;66.00;;;;;;5051907;28;20549;-86
2021/09/12 14:46:04;;;;;;;2.73;2.53;;;28.10;69.00;;;;;;5052155;28;20446;-86
2021/09/12 14:48:33;;;;;;;2.67;2.47;;;28.20;69.20;;;;;;5051867;28;20437;-86
2021/09/12 14:51:00;;;;;;;3.10;2.90;;;28.40;67.30;;;;;;5051568;28;20450;-86
2021/09/12 14:53:27;;;;;;;3.10;2.90;;;28.70;68.90;;;;;;5050600;28;20458;-86
2021/09/12 14:55:54;;;;;;;2.90;2.70;;;28.80;67.80;;;;;;5050599;28;20486;-86
2021/09/12 14:58:21;;;;;;;3.00;2.77;;;28.90;65.20;;;;;;5050694;28;20468;-86
2021/09/12 15:00:51;;;;;;;2.67;2.47;;;29.00;66.10;;;;;;5051137;28;20455;-86
2021/09/12 15:03:42;;;;;;;2.73;2.53;;;29.00;63.70;;;;;;5045879;28;20463;-86
2021/09/12 15:11:51;;;;;;;3.17;2.97;;;29.40;65.30;;;;;;5031194;28;20459;-89
2021/09/12 15:14:18;;;;;;;2.83;2.63;;;29.60;61.50;;;;;;5052609;28;20475;-88
2021/09/12 15:16:52;;;;;;;2.50;2.30;;;29.20;62.00;;;;;;5052525;28;20570;-87
2021/09/12 15:19:20;;;;;;;3.00;2.80;;;29.10;65.20;;;;;;5052453;28;20484;-88
2021/09/12 15:24:50;;;;;;;2.93;2.80;;;28.20;63.50;;;;;;5051892;28;20440;-87
2021/09/12 15:27:18;;;;;;;4.50;2.87;;;28.00;64.30;;;;;;5052154;28;20895;-88
2021/09/12 15:30:29;;;;;;;3.30;3.00;;;27.50;66.60;;;;;;5052082;28;20548;-88
2021/09/12 15:33:12;;;;;;;5.10;4.70;;;26.90;68.40;;;;;;5051939;28;20455;-89
2021/09/12 15:35:42;;;;;;;3.90;3.60;;;26.90;69.60;;;;;;5051593;28;21022;-87
2021/09/12 15:38:09;;;;;;;3.07;2.87;;;26.60;69.20;;;;;;5051908;28;20470;-88
2021/09/12 15:40:41;;;;;;;2.80;2.60;;;26.50;70.50;;;;;;5051608;28;20547;-88
2021/09/12 15:43:16;;;;;;;2.93;2.63;;;26.40;70.20;;;;;;5051406;28;21027;-88
2021/09/12 15:45:43;;;;;;;2.90;2.70;;;26.30;71.90;;;;;;5051925;28;20440;-88
2021/09/12 15:48:10;;;;;;;3.60;3.30;;;26.20;73.40;;;;;;5051359;28;20463;-87
2021/09/12 15:50:38;;;;;;;3.80;3.60;;;26.20;73.20;;;;;;5051661;28;20466;-87
2021/09/12 15:53:06;;;;;;;4.07;3.50;;;26.10;73.40;;;;;;5050740;28;21004;-87
2021/09/12 15:55:50;;;;;;;2.70;2.50;;;26.10;74.20;;;;;;5051255;28;20442;-88
2021/09/12 15:58:17;;;;;;;2.50;2.40;;;26.10;71.90;;;;;;5050851;28;20801;-87
2021/09/12 16:01:08;;;;;;;3.00;2.73;;;26.00;72.60;;;;;;5053648;28;20489;-88
2021/09/12 16:03:52;;;;;;;3.43;3.23;;;25.90;74.00;;;;;;5051803;28;20454;-86
2021/09/12 16:06:20;;;;;;;3.10;2.90;;;25.60;73.70;;;;;;5051297;28;20444;-86
2021/09/12 16:09:04;;;;;;;3.53;3.23;;;25.70;74.40;;;;;;5051430;28;20473;-87
2021/09/12 16:11:31;;;;;;;2.90;2.70;;;25.70;74.20;;;;;;5050794;28;20516;-86
2021/09/12 16:14:04;;;;;;;3.13;2.93;;;25.80;73.60;;;;;;5049254;28;20449;-85
2021/09/12 16:16:31;;;;;;;3.00;2.80;;;25.80;74.10;;;;;;5049684;28;20974;-86
2021/09/12 16:19:02;;;;;;;3.00;2.80;;;25.80;74.10;;;;;;5051137;28;20900;-86
2021/09/12 16:21:31;;;;;;;3.60;3.30;;;25.90;74.20;;;;;;5050727;28;20456;-87
2021/09/12 16:23:59;;;;;;;2.90;2.70;;;25.90;74.20;;;;;;5051997;28;20450;-85
2021/09/12 16:26:26;;;;;;;3.17;2.90;;;25.90;74.70;;;;;;5052037;28;20457;-85
2021/09/12 16:28:53;;;;;;;3.57;3.30;;;26.00;74.70;;;;;;5051962;28;20498;-86
2021/09/12 16:31:20;;;;;;;3.80;2.60;;;26.10;74.90;;;;;;5051555;28;20458;-86
2021/09/12 16:33:49;;;;;;;4.70;2.90;;;26.30;73.90;;;;;;5052803;28;20447;-87
2021/09/12 16:36:16;;;;;;;4.50;4.10;;;26.10;72.90;;;;;;5053277;28;20490;-85
2021/09/12 16:38:42;;;;;;;3.13;2.93;;;26.10;74.40;;;;;;5053779;28;20502;-86
2021/09/12 16:41:11;;;;;;;3.17;2.97;;;26.10;74.10;;;;;;5053907;28;20455;-85
2021/09/12 16:43:40;;;;;;;3.63;3.33;;;26.10;73.90;;;;;;5053550;28;20938;-85
2021/09/12 16:46:15;;;;;;;2.80;2.60;;;25.90;74.90;;;;;;5053938;28;20441;-85
2021/09/12 16:48:42;;;;;;;3.17;2.97;;;25.90;75.10;;;;;;5052964;28;20901;-85
2021/09/12 16:51:12;;;;;;;3.50;3.17;;;26.00;75.30;;;;;;5054158;28;20449;-89
2021/09/12 16:53:41;;;;;;;2.60;2.50;;;25.90;74.90;;;;;;5054390;28;20465;-87
2021/09/12 16:56:20;;;;;;;3.03;2.50;;;25.70;75.00;;;;;;5052923;28;20983;-86
2021/09/12 16:58:47;;;;;;;3.30;3.10;;;25.60;75.80;;;;;;5051038;28;20471;-88
2021/09/12 17:01:14;;;;;;;3.50;3.20;;;25.20;75.90;;;;;;5056743;28;20503;-85
2021/09/12 17:03:41;;;;;;;3.63;3.33;;;25.30;77.70;;;;;;5059927;28;20963;-85
2021/09/12 17:06:07;;;;;;;4.10;3.60;;;25.30;77.90;;;;;;5062150;28;20455;-85
2021/09/12 17:08:34;;;;;;;3.37;3.07;;;25.40;78.90;;;;;;5062107;28;20449;-85
2021/09/12 17:11:01;;;;;;;3.80;3.40;;;25.30;78.30;;;;;;5061803;28;20464;-85
2021/09/12 17:13:29;;;;;;;3.20;2.97;;;25.30;79.40;;;;;;5062061;28;20855;-86
2021/09/12 17:15:56;;;;;;;4.60;3.83;;;25.20;79.40;;;;;;5066515;28;21052;-85
2021/09/12 17:18:23;;;;;;;3.93;3.53;;;24.90;79.60;;;;;;5066635;28;20444;-86
2021/09/12 17:20:49;;;;;;;4.20;3.40;;;24.70;80.50;;;;;;5067235;28;20448;-85
2021/09/12 17:23:16;;;;;;;2.97;2.77;;;24.60;81.00;;;;;;5065248;28;20453;-85
2021/09/12 17:25:43;;;;;;;4.10;3.80;;;24.40;82.20;;;;;;5066472;28;20448;-86
2021/09/12 17:28:09;;;;;;;4.43;3.37;;;24.30;83.10;;;;;;5066990;28;20468;-85
2021/09/12 17:30:37;;;;;;;4.13;3.80;;;24.10;84.30;;;;;;5067274;28;20471;-84
2021/09/12 17:33:04;;;;;;;3.83;3.50;;;23.90;84.70;;;;;;5066471;28;20449;-85
2021/09/12 17:35:31;;;;;;;3.90;3.60;;;23.70;85.30;;;;;;5066437;28;20449;-85
2021/09/12 17:37:59;;;;;;;5.00;3.97;;;23.50;86.20;;;;;;5066876;28;20488;-85
2021/09/12 17:40:26;;;;;;;4.07;3.77;;;23.30;86.80;;;;;;5067349;28;20479;-85
2021/09/12 17:42:53;;;;;;;3.13;2.93;;;23.10;87.60;;;;;;5067823;28;20486;-86
2021/09/12 17:45:20;;;;;;;3.50;3.30;;;22.90;88.20;;;;;;5067483;28;20478;-86
2021/09/12 17:47:48;;;;;;;3.63;3.43;;;22.60;89.40;;;;;;5066769;28;20445;-85
2021/09/12 17:50:15;;;;;;;3.50;3.27;;;22.40;90.10;;;;;;5067359;28;20465;-86
2021/09/12 17:52:42;;;;;;;4.53;4.13;;;22.20;90.60;;;;;;5066656;28;20449;-85
2021/09/12 17:55:10;;;;;;;3.97;3.67;;;22.00;91.10;;;;;;5067494;28;20958;-85
2021/09/12 17:57:37;;;;;;;4.70;3.60;;;21.90;91.60;;;;;;5066794;28;20546;-84
2021/09/12 18:00:05;;;;;;;4.67;4.17;;;21.70;91.90;;;;;;5066826;28;20464;-85
2021/09/12 18:02:32;;;;;;;4.00;3.67;;;21.50;92.90;;;;;;5066600;28;20451;-85
2021/09/12 18:05:00;;;;;;;4.17;3.77;;;21.40;93.00;;;;;;5067816;28;20452;-85
2021/09/12 18:07:26;;;;;;;4.57;4.27;;;21.30;93.20;;;;;;5066814;28;20449;-85
2021/09/12 18:09:53;;;;;;;5.57;5.10;;;21.10;93.50;;;;;;5067434;28;20477;-85
2021/09/12 18:12:20;;;;;;;5.10;4.70;;;21.00;93.90;;;;;;5066547;28;20452;-85
2021/09/12 18:14:47;;;;;;;5.00;3.80;;;20.90;94.50;;;;;;5066885;28;20455;-85
2021/09/12 18:17:13;;;;;;;4.23;3.83;;;20.80;95.10;;;;;;5062840;28;20483;-85
2021/09/12 18:19:40;;;;;;;4.57;4.27;;;20.60;95.00;;;;;;5062900;28;20460;-83
2021/09/12 18:22:09;;;;;;;3.80;3.50;;;20.50;95.90;;;;;;5062377;28;20455;-84
2021/09/12 18:24:36;;;;;;;4.47;4.13;;;20.30;96.40;;;;;;5062399;28;20474;-84
2021/09/12 18:27:03;;;;;;;4.20;3.80;;;20.10;96.50;;;;;;5062591;28;20447;-83
2021/09/12 18:29:29;;;;;;;4.97;4.57;;;20.00;96.90;;;;;;5062904;28;20471;-84
2021/09/12 18:31:58;;;;;;;6.03;5.53;;;19.90;97.50;;;;;;5062397;28;20452;-84
2021/09/12 18:34:24;;;;;;;3.93;3.73;;;19.80;97.90;;;;;;5060084;28;20509;-83
2021/09/12 18:36:51;;;;;;;4.93;4.47;;;19.70;98.30;;;;;;5058925;28;20486;-84
2021/09/12 18:39:19;;;;;;;4.93;4.53;;;19.60;99.20;;;;;;5060994;28;20535;-84
2021/09/12 18:41:46;;;;;;;3.30;3.10;;;19.50;99.70;;;;;;5062582;28;20456;-84
2021/09/12 18:44:13;;;;;;;3.53;3.33;;;19.40;99.90;;;;;;5063343;28;20746;-83
2021/09/12 18:46:39;;;;;;;4.50;4.10;;;19.40;99.90;;;;;;5060316;28;20451;-83
2021/09/12 18:49:06;;;;;;;4.20;3.90;;;19.40;99.90;;;;;;5059888;28;20900;-84